Alyeska Resort
Hourly Weather - Base Weather Site
ALY_BASE_HR 3/28/2017
CLICK TO VIEW GRAPH!!

        DATE  TIME   Air  BATT   H2o   H2o   Rel
                    Temp  Volt  Inch Since  Hum%
                      F   AVG   1HR  0600   AVG

   3/28/2017 05:00    27 14.08  0.01  0.19    95
   3/28/2017 04:00    27 14.08  0.01  0.18    95
   3/28/2017 03:00    26 14.08  0.00  0.17    95
   3/28/2017 02:00    27 14.07  0.04  0.17    95
   3/28/2017 01:00    27 14.07  0.06  0.13    95
   3/27/2017 24:00    27 14.06  0.03  0.07    95
   3/27/2017 23:00    28 14.05  0.03  0.04    94
   3/27/2017 22:00    28 14.04  0.01  0.01    91
   3/27/2017 21:00    28 14.01  0.00  0.00    87
   3/27/2017 20:00    30 13.96  0.00  0.00    78
   3/27/2017 19:00    31 13.94  0.00  0.00    72
   3/27/2017 18:00    32 13.91  0.00  0.00    69
   3/27/2017 17:00    32 13.93  0.00  0.00    68
   3/27/2017 16:00    31 13.95  0.00  0.00    67
   3/27/2017 15:00    31 13.98  0.00  0.00    66
   3/27/2017 14:00    29 14.03  0.00  0.00    69
   3/27/2017 13:00    28 14.07  0.00  0.00    72
   3/27/2017 12:00    25 14.13  0.00  0.00    79
   3/27/2017 11:00    23 14.18  0.00  0.00    81
   3/27/2017 10:00    20 14.23  0.00  0.00    86
   3/27/2017 09:00    18 14.25  0.00  0.00    86
   3/27/2017 08:00    20 14.22  0.00  0.00    86
   3/27/2017 07:00    20 14.22  0.00  0.00    87
   3/27/2017 06:00    20 14.23  0.00  0.00    86


CLICK TO VIEW GRAPH!!